createdAt,value
2024-02-01T00:03:08.238Z,79.44
2024-02-01T00:08:15.032Z,79.24
2024-02-01T00:13:20.649Z,79.62
2024-02-01T00:18:26.458Z,79.63
2024-02-01T00:23:32.171Z,80.07
2024-02-01T00:28:37.889Z,80.07
2024-02-01T00:33:43.721Z,80.27
2024-02-01T00:38:49.841Z,80.50
2024-02-01T00:43:55.440Z,80.42
2024-02-01T00:49:01.209Z,80.74
2024-02-01T00:54:07.249Z,81.07
2024-02-01T00:59:12.916Z,80.86
2024-02-01T01:04:18.623Z,81.06
2024-02-01T01:09:24.265Z,80.94
2024-02-01T01:14:29.996Z,81.36
2024-02-01T01:19:35.672Z,80.92
2024-02-01T01:24:41.333Z,80.85
2024-02-01T01:29:46.974Z,80.25
2024-02-01T01:34:52.677Z,80.86
2024-02-01T01:39:58.321Z,80.79
2024-02-01T01:45:05.107Z,81.08
2024-02-01T01:50:11.876Z,80.88
2024-02-01T01:55:17.226Z,81.10
2024-02-01T02:00:24.962Z,80.65
2024-02-01T02:05:30.762Z,80.90
2024-02-01T02:10:36.804Z,81.34
2024-02-01T02:15:42.796Z,80.99
2024-02-01T02:20:53.299Z,81.00
2024-02-01T02:25:59.261Z,81.20
2024-02-01T02:31:05.015Z,81.62
2024-02-01T02:36:11.460Z,81.09
2024-02-01T02:41:17.758Z,81.16
2024-02-01T02:46:25.365Z,81.23
2024-02-01T02:51:31.178Z,81.60
2024-02-01T02:56:37.234Z,81.25
2024-02-01T03:01:44.610Z,81.11
2024-02-01T03:06:50.968Z,81.14
2024-02-01T03:11:57.831Z,80.99
2024-02-01T03:17:02.918Z,81.02
2024-02-01T03:22:08.620Z,80.83
2024-02-01T03:27:14.551Z,80.62
2024-02-01T03:32:20.925Z,80.94
2024-02-01T03:37:29.530Z,80.70
2024-02-01T03:42:35.509Z,81.02
2024-02-01T03:47:41.209Z,80.89
2024-02-01T03:52:46.914Z,80.77
2024-02-01T03:57:52.741Z,81.06
2024-02-01T04:02:59.277Z,80.74
2024-02-01T04:08:07.416Z,80.86
2024-02-01T04:13:13.035Z,80.36
2024-02-01T04:18:19.504Z,80.89
2024-02-01T04:23:25.180Z,80.41
2024-02-01T04:28:30.837Z,80.47
2024-02-01T04:33:36.602Z,80.20
2024-02-01T04:38:43.359Z,80.46
2024-02-01T04:43:49.030Z,80.34
2024-02-01T04:48:54.665Z,80.86
2024-02-01T04:54:00.374Z,80.51
2024-02-01T04:59:06.415Z,80.64
2024-02-01T05:04:15.211Z,80.55
2024-02-01T05:09:28.094Z,80.74
2024-02-01T05:14:34.451Z,81.13
2024-02-01T05:19:40.161Z,80.65
2024-02-01T05:24:46.082Z,81.03
2024-02-01T05:29:52.479Z,80.66
2024-02-01T05:34:58.098Z,80.53
2024-02-01T05:40:03.685Z,81.06
2024-02-01T05:45:11.052Z,80.65
2024-02-01T05:50:17.860Z,81.44
2024-02-01T05:55:22.163Z,81.00
2024-02-01T06:00:28.158Z,81.58
2024-02-01T06:05:33.854Z,81.45
2024-02-01T06:10:39.745Z,81.63
2024-02-01T06:15:46.075Z,81.56
2024-02-01T06:20:51.783Z,81.90
2024-02-01T06:25:57.698Z,81.80
2024-02-01T06:31:03.344Z,81.91
2024-02-01T06:36:15.113Z,81.66
2024-02-01T06:41:33.138Z,81.70
2024-02-01T06:47:07.341Z,82.22
2024-02-01T06:52:26.238Z,81.33
2024-02-01T06:57:46.483Z,81.62
2024-02-01T07:03:03.489Z,81.90
2024-02-01T07:08:14.474Z,81.69
2024-02-01T07:13:36.036Z,81.61
2024-02-01T07:18:45.125Z,81.52
2024-02-01T07:23:58.645Z,81.38
2024-02-01T07:29:21.965Z,81.25
2024-02-01T07:34:45.291Z,81.31
2024-02-01T07:40:08.297Z,81.25
2024-02-01T07:45:32.222Z,81.12
2024-02-01T07:51:00.718Z,81.20
2024-02-01T07:56:24.735Z,80.86
2024-02-01T08:01:39.404Z,80.85
2024-02-01T08:07:03.248Z,80.86
2024-02-01T08:12:09.681Z,80.59
2024-02-01T08:17:15.471Z,80.77
2024-02-01T08:22:21.073Z,80.50
2024-02-01T08:27:27.439Z,80.40
2024-02-01T08:32:33.391Z,80.59
2024-02-01T08:37:39.399Z,80.53
2024-02-01T08:42:45.267Z,80.50
2024-02-01T08:47:51.320Z,80.39
2024-02-01T08:52:57.295Z,79.98
2024-02-01T08:58:10.237Z,80.09
2024-02-01T09:03:18.719Z,80.01
2024-02-01T09:08:36.824Z,79.81
2024-02-01T09:13:45.106Z,79.83
2024-02-01T09:18:51.011Z,79.97
2024-02-01T09:23:56.991Z,80.34
2024-02-01T09:29:12.734Z,80.56
2024-02-01T09:34:19.055Z,80.94
2024-02-01T09:39:24.992Z,81.26
2024-02-01T09:44:33.967Z,81.49
2024-02-01T09:49:43.543Z,81.95
2024-02-01T09:54:50.421Z,82.03
2024-02-01T09:59:56.339Z,82.23
2024-02-01T10:05:03.490Z,82.62
2024-02-01T10:10:13.550Z,82.89
2024-02-01T10:15:26.731Z,83.17
2024-02-01T10:20:41.230Z,83.22
2024-02-01T10:25:49.923Z,83.50
2024-02-01T10:30:56.416Z,83.89
2024-02-01T10:36:11.013Z,83.94
2024-02-01T10:41:25.533Z,84.07
2024-02-01T10:46:40.997Z,84.17
2024-02-01T10:51:46.975Z,84.26
2024-02-01T10:56:52.952Z,84.28
2024-02-01T11:01:59.833Z,84.45
2024-02-01T11:07:06.734Z,84.53
2024-02-01T11:12:15.908Z,84.83
2024-02-01T11:17:27.476Z,84.55
2024-02-01T11:22:34.822Z,85.02
2024-02-01T11:27:47.850Z,85.05
2024-02-01T11:32:54.360Z,85.30
2024-02-01T11:38:03.162Z,85.22
2024-02-01T11:43:10.328Z,85.04
2024-02-01T11:48:18.554Z,85.25
2024-02-01T11:53:25.698Z,85.42
2024-02-01T11:58:33.269Z,85.48
2024-02-01T12:03:47.747Z,85.56
2024-02-01T12:08:54.260Z,85.65
2024-02-01T12:14:02.271Z,85.74
2024-02-01T12:19:14.369Z,85.50
2024-02-01T12:24:25.227Z,85.67
2024-02-01T12:29:32.721Z,85.50
2024-02-01T12:34:39.321Z,85.56
2024-02-01T12:39:45.042Z,86.08
2024-02-01T12:44:51.130Z,85.79
2024-02-01T12:49:57.628Z,85.90
2024-02-01T12:55:03.255Z,85.68
2024-02-01T13:00:12.967Z,85.78
2024-02-01T13:05:20.145Z,85.86
2024-02-01T13:10:25.977Z,85.85
2024-02-01T13:15:31.681Z,86.10
2024-02-01T13:20:37.397Z,85.96
2024-02-01T13:25:44.336Z,85.88
2024-02-01T13:30:50.027Z,85.84
2024-02-01T13:35:55.784Z,86.08
2024-02-01T13:41:01.834Z,85.91
2024-02-01T13:46:07.891Z,86.08
2024-02-01T13:51:15.177Z,85.99
2024-02-01T13:56:21.100Z,85.77
2024-02-01T14:01:28.105Z,86.06
2024-02-01T14:06:33.991Z,85.99
2024-02-01T14:11:40.641Z,86.15
2024-02-01T14:16:44.682Z,86.19
2024-02-01T14:21:52.830Z,86.21
2024-02-01T14:26:58.554Z,85.97
2024-02-01T14:32:04.521Z,85.78
2024-02-01T14:37:12.443Z,86.00
2024-02-01T14:42:18.237Z,86.05
2024-02-01T14:47:24.208Z,85.91
2024-02-01T14:52:30.149Z,86.01
2024-02-01T14:57:36.248Z,85.88
2024-02-01T15:02:44.328Z,85.83
2024-02-01T15:07:50.220Z,85.69
2024-02-01T15:12:55.883Z,85.73
2024-02-01T15:18:02.966Z,85.52
2024-02-01T15:23:10.581Z,85.46
2024-02-01T15:28:18.924Z,85.59
2024-02-01T15:33:25.163Z,85.62
2024-02-01T15:38:32.913Z,85.79
2024-02-01T15:43:39.263Z,85.59
2024-02-01T15:48:47.203Z,85.52
2024-02-01T15:53:52.870Z,85.48
2024-02-01T15:58:58.550Z,85.38
2024-02-01T16:04:04.355Z,85.20
2024-02-01T16:09:13.228Z,84.67
2024-02-01T16:14:23.358Z,84.78
2024-02-01T16:19:36.200Z,84.70
2024-02-01T16:24:58.645Z,84.26
2024-02-01T16:30:15.203Z,84.53
2024-02-01T16:35:48.488Z,84.59
2024-02-01T16:40:54.433Z,84.31
2024-02-01T16:46:00.283Z,84.11
2024-02-01T16:51:06.283Z,83.92
2024-02-01T16:56:13.623Z,83.95
2024-02-01T17:01:38.265Z,83.91
2024-02-01T17:06:45.057Z,84.01
2024-02-01T17:11:55.913Z,84.27
2024-02-01T17:17:03.917Z,84.15
2024-02-01T17:22:17.742Z,84.27
2024-02-01T17:27:26.645Z,83.98
2024-02-01T17:32:35.812Z,83.96
2024-02-01T17:37:43.533Z,83.78
2024-02-01T17:42:51.956Z,83.96
2024-02-01T17:48:05.854Z,83.62
2024-02-01T17:53:12.480Z,84.02
2024-02-01T17:58:33.399Z,84.33
2024-02-01T18:03:40.303Z,84.27
2024-02-01T18:08:46.150Z,84.20
2024-02-01T18:13:51.930Z,84.18
2024-02-01T18:19:04.006Z,84.28
2024-02-01T18:24:23.316Z,84.43
2024-02-01T18:29:45.228Z,84.19
2024-02-01T18:34:52.473Z,84.08
2024-02-01T18:39:58.646Z,84.23
2024-02-01T18:45:21.702Z,84.16
2024-02-01T18:50:36.193Z,84.04
2024-02-01T18:55:46.749Z,84.01
2024-02-01T19:00:53.054Z,83.82
2024-02-01T19:05:58.869Z,83.76
2024-02-01T19:11:05.752Z,83.32
2024-02-01T19:16:17.691Z,83.22
2024-02-01T19:21:27.111Z,83.12
2024-02-01T19:26:33.689Z,83.31
2024-02-01T19:31:39.718Z,83.07
2024-02-01T19:36:47.484Z,82.80
2024-02-01T19:41:53.549Z,82.44
2024-02-01T19:46:59.413Z,82.36
2024-02-01T19:52:05.383Z,82.16
2024-02-01T19:57:11.869Z,82.41
2024-02-01T20:02:16.132Z,82.18
2024-02-01T20:07:21.910Z,81.97
2024-02-01T20:12:27.853Z,81.80
2024-02-01T20:17:33.687Z,81.83
2024-02-01T20:22:41.722Z,81.59
2024-02-01T20:27:55.394Z,81.19
2024-02-01T20:33:03.299Z,81.01
2024-02-01T20:38:15.247Z,80.66
2024-02-01T20:43:22.810Z,81.08
2024-02-01T20:48:46.976Z,80.68
2024-02-01T20:53:57.767Z,80.79
2024-02-01T20:59:05.948Z,80.79
2024-02-01T21:04:25.350Z,80.66
2024-02-01T21:09:41.736Z,80.41
2024-02-01T21:14:49.248Z,80.40
2024-02-01T21:19:55.633Z,80.28
2024-02-01T21:25:01.898Z,80.04
2024-02-01T21:30:11.761Z,79.98
2024-02-01T21:35:42.045Z,80.15
2024-02-01T21:40:48.018Z,79.80
2024-02-01T21:45:53.791Z,79.75
2024-02-01T21:50:59.540Z,79.54
2024-02-01T21:56:05.434Z,79.31
2024-02-01T22:01:11.160Z,79.35
2024-02-01T22:06:17.359Z,79.57
2024-02-01T22:11:23.849Z,79.12
2024-02-01T22:16:29.500Z,79.32
2024-02-01T22:21:35.209Z,79.19
2024-02-01T22:26:40.875Z,79.00
2024-02-01T22:31:47.085Z,79.09
2024-02-01T22:36:52.944Z,78.85
2024-02-01T22:41:58.654Z,78.77
2024-02-01T22:47:04.663Z,78.59
2024-02-01T22:52:10.615Z,78.07
2024-02-01T22:57:16.373Z,78.22
2024-02-01T23:02:22.006Z,77.89
2024-02-01T23:07:28.233Z,77.68
2024-02-01T23:12:34.276Z,77.53
2024-02-01T23:17:40.067Z,77.49
2024-02-01T23:22:45.759Z,77.07
2024-02-01T23:27:51.667Z,77.34
2024-02-01T23:32:57.598Z,76.91
2024-02-01T23:38:03.434Z,77.03
2024-02-01T23:43:09.213Z,76.52
2024-02-01T23:48:15.501Z,76.61
2024-02-01T23:53:21.388Z,76.44
2024-02-01T23:58:27.500Z,76.18
